CYQR

Regina International Airport

Regina, Saskatchewan, Canada
METAR CYQR 222100Z 27020G31KT 15SM FEW078 FEW280 15/M03 A3005 RMK AC1CI1 CI TR SLP196 DENSITY ALT 2200FT
Observed Flight Rules
Apr-22 @ 21:00 UTC (47 minutes ago) Visual Flight Rules
Wind Visibility Clouds
270° at 20 knots
 Gusting to 31 knots
15 miles
  • Few at 7,800' AGL
  • Few at 28,000' AGL
Temperatures Readings
Current 15°C / 59°F
Dewpoint -3°C / 27°F
Humidity 29%
Altimeter 30.05" Hg
Pressure 1019.6 hPa
Elevation 577
METAR CYQR 222100Z 27020G31KT 15SM FEW078 FEW280 15/M03 A3005 RMK AC1CI1 CI TR SLP196 DENSITY ALT 2200FT
Observed Flight Rules
Apr-22 @ 21:00 UTC
(47 minutes ago)
VFR
Wind Visibility
270° at 20 knots
 Gusting to 31 knots
15 miles
Clouds
  • Few at 7,800' AGL
  • Few at 28,000' AGL
Temperature Dewpoint
15°C / 59°F -3°C / 27°F
Humidity Altimeter Pressure
29% 30.05" Hg 1019.6 hPa